Time;durP1;ratioP1;P1;durP2;ratioP2;P2;SDS_P1;SDS_P2;PMS_P1;PMS_P2;Temp;Humidity;BMP_temperature;BMP_pressure;BME280_temperature;BME280_humidity;BME280_pressure;Samples;Min_cycle;Max_cycle;Signal;HPM_P1;HPM_P2
2023/05/24 00:02:07;;;;;;;24.77;5.50;;;9.50;99.90;;;;;;5056755;28;20037;-76
2023/05/24 00:04:33;;;;;;;24.65;6.13;;;9.50;99.90;;;;;;5055871;28;20055;-76
2023/05/24 00:07:02;;;;;;;23.80;5.43;;;9.40;99.90;;;;;;5024560;28;20033;-76
2023/05/24 00:09:31;;;;;;;22.00;5.25;;;9.50;99.90;;;;;;5056957;28;20041;-75
2023/05/24 00:11:56;;;;;;;23.42;5.90;;;9.50;99.90;;;;;;5044389;28;20055;-76
2023/05/24 00:14:22;;;;;;;36.38;5.70;;;9.50;99.90;;;;;;5043201;28;20044;-75
2023/05/24 00:16:48;;;;;;;24.13;6.13;;;9.50;99.90;;;;;;5041248;28;20299;-75
2023/05/24 00:19:22;;;;;;;21.98;5.20;;;9.50;99.90;;;;;;5019822;28;20037;-75
2023/05/24 00:21:48;;;;;;;26.60;5.53;;;9.50;99.90;;;;;;5028972;28;20037;-75
2023/05/24 00:24:15;;;;;;;23.55;5.65;;;9.50;99.90;;;;;;5055913;28;20032;-75
2023/05/24 00:26:42;;;;;;;26.13;5.50;;;9.50;99.90;;;;;;5058271;28;20049;-76
2023/05/24 00:29:07;;;;;;;29.33;5.82;;;9.50;99.90;;;;;;5057351;28;20047;-76
2023/05/24 00:31:33;;;;;;;32.22;5.95;;;9.50;99.90;;;;;;5052469;28;20048;-75
2023/05/24 00:33:59;;;;;;;21.13;5.32;;;9.50;99.90;;;;;;5053226;28;20120;-75
2023/05/24 00:36:25;;;;;;;23.10;5.10;;;9.50;99.90;;;;;;5043300;28;20040;-75
2023/05/24 00:38:51;;;;;;;23.90;5.22;;;9.50;99.90;;;;;;5039579;28;20043;-75
2023/05/24 00:41:17;;;;;;;23.23;5.15;;;9.50;99.90;;;;;;5041157;28;20068;-75
2023/05/24 00:43:43;;;;;;;22.23;5.20;;;9.50;99.90;;;;;;5057497;28;20080;-75
2023/05/24 00:46:18;;;;;;;29.55;5.72;;;9.50;99.90;;;;;;5041336;28;20041;-75
2023/05/24 00:48:44;;;;;;;26.33;5.60;;;9.50;99.90;;;;;;5053188;28;20033;-75
2023/05/24 00:51:11;;;;;;;23.52;5.40;;;9.40;99.90;;;;;;5058660;28;20037;-75
2023/05/24 00:53:40;;;;;;;26.30;6.00;;;9.40;99.90;;;;;;5039583;28;21812;-75
2023/05/24 00:56:06;;;;;;;21.08;5.22;;;9.40;99.90;;;;;;5059369;28;20414;-75
2023/05/24 00:58:32;;;;;;;20.48;4.55;;;9.40;99.90;;;;;;5041702;28;20031;-75
2023/05/24 01:00:59;;;;;;;23.05;5.15;;;9.40;99.90;;;;;;5059648;28;20453;-75
2023/05/24 01:03:28;;;;;;;20.45;4.80;;;9.40;99.90;;;;;;5058667;28;20044;-75
2023/05/24 01:05:55;;;;;;;22.58;5.25;;;9.30;99.90;;;;;;5060285;28;20028;-75
2023/05/24 01:08:43;;;;;;;23.85;6.45;;;9.50;99.90;;;;;;5059871;28;20541;-75
2023/05/24 01:11:41;;;;;;;24.08;5.00;;;9.30;99.90;;;;;;5059034;28;20039;-75
2023/05/24 01:14:25;;;;;;;20.85;5.43;;;9.30;99.90;;;;;;5052458;28;20457;-75
2023/05/24 01:16:52;;;;;;;20.38;5.28;;;9.30;99.90;;;;;;5042997;28;20053;-75
2023/05/24 01:19:31;;;;;;;24.00;5.63;;;9.30;99.90;;;;;;5059212;28;20035;-75
2023/05/24 01:22:20;;;;;;;23.73;5.35;;;9.30;99.90;;;;;;5059932;28;20497;-75
2023/05/24 01:24:54;;;;;;;22.13;5.35;;;9.20;99.90;;;;;;5058952;28;20040;-75
2023/05/24 01:27:22;;;;;;;26.67;5.10;;;9.20;99.90;;;;;;5047534;28;20068;-76
2023/05/24 01:29:52;;;;;;;23.42;5.32;;;9.20;99.90;;;;;;5057926;28;20510;-75
2023/05/24 01:32:21;;;;;;;23.52;4.90;;;9.20;99.90;;;;;;5059725;28;20117;-75
2023/05/24 01:34:47;;;;;;;18.73;4.75;;;9.20;99.90;;;;;;5057057;28;20097;-75
2023/05/24 01:37:13;;;;;;;24.25;6.18;;;9.20;99.90;;;;;;5058030;28;20119;-75
2023/05/24 01:39:39;;;;;;;19.80;4.68;;;9.20;99.90;;;;;;5028836;28;20382;-75
2023/05/24 01:42:29;;;;;;;24.20;5.30;;;10.30;99.90;;;;;;5039405;28;20086;-75
2023/05/24 01:45:14;;;;;;;24.13;5.05;;;9.30;99.90;;;;;;5061609;28;20032;-75
2023/05/24 01:47:44;;;;;;;17.77;4.45;;;9.40;99.90;;;;;;5041691;28;20228;-75
2023/05/24 01:50:27;;;;;;;26.58;5.55;;;9.40;99.90;;;;;;5060610;28;20037;-75
2023/05/24 01:52:56;;;;;;;22.50;5.28;;;9.40;99.90;;;;;;5057707;28;20106;-76
2023/05/24 01:55:23;;;;;;;28.10;6.10;;;9.40;99.90;;;;;;5057056;28;20047;-75
2023/05/24 01:57:50;;;;;;;23.10;5.70;;;9.40;99.90;;;;;;5058780;28;20052;-75
2023/05/24 02:00:18;;;;;;;19.25;4.43;;;9.50;99.90;;;;;;5041514;28;20129;-76
2023/05/24 02:02:44;;;;;;;20.95;5.00;;;9.40;99.90;;;;;;5040978;28;20143;-75
2023/05/24 02:05:10;;;;;;;20.80;5.45;;;9.50;99.90;;;;;;5040528;28;20032;-75
2023/05/24 02:07:37;;;;;;;23.60;5.80;;;9.50;99.90;;;;;;5056170;28;20505;-75
2023/05/24 02:10:03;;;;;;;23.05;5.13;;;9.50;99.90;;;;;;5060582;28;20126;-75
2023/05/24 02:12:29;;;;;;;21.90;5.32;;;9.50;99.90;;;;;;5039672;28;20040;-75
2023/05/24 02:14:56;;;;;;;23.15;5.18;;;9.50;99.90;;;;;;5055974;28;20036;-75
2023/05/24 02:17:24;;;;;;;23.23;4.65;;;9.50;99.90;;;;;;5043574;28;20059;-75
2023/05/24 02:19:50;;;;;;;25.88;5.88;;;9.50;99.90;;;;;;5043197;28;20122;-75
2023/05/24 02:22:15;;;;;;;21.83;4.97;;;9.50;99.90;;;;;;5044011;28;21349;-75
2023/05/24 02:24:42;;;;;;;20.30;4.20;;;9.50;99.90;;;;;;5059693;28;20119;-75
2023/05/24 02:27:08;;;;;;;19.75;4.82;;;9.50;99.90;;;;;;5042950;28;20051;-75
2023/05/24 02:29:34;;;;;;;25.75;5.28;;;9.50;99.90;;;;;;5059277;28;20040;-75
2023/05/24 02:32:00;;;;;;;25.42;4.50;;;9.60;99.90;;;;;;5057751;28;20071;-74
2023/05/24 02:34:25;;;;;;;25.65;4.93;;;9.60;99.90;;;;;;5041228;28;20044;-75
2023/05/24 02:36:53;;;;;;;27.13;5.13;;;9.70;99.90;;;;;;5040746;28;20097;-75
2023/05/24 02:39:19;;;;;;;17.60;4.07;;;9.70;99.90;;;;;;5046309;28;20025;-75
2023/05/24 02:41:45;;;;;;;21.55;4.80;;;9.70;99.90;;;;;;5041264;28;20040;-75
2023/05/24 02:44:10;;;;;;;21.17;4.53;;;9.70;99.90;;;;;;5039489;28;20048;-75
2023/05/24 02:46:36;;;;;;;22.00;4.45;;;;;;;;;;5044265;28;20491;-75
2023/05/24 02:49:03;;;;;;;18.80;4.32;;;9.80;99.90;;;;;;5058956;28;20044;-75
2023/05/24 02:51:31;;;;;;;21.02;4.60;;;9.80;99.90;;;;;;5039439;28;20037;-75
2023/05/24 02:53:57;;;;;;;19.63;4.88;;;9.80;99.90;;;;;;5043202;28;20504;-75
2023/05/24 02:56:25;;;;;;;19.55;5.05;;;9.80;99.90;;;;;;5041244;28;20037;-75
2023/05/24 02:58:52;;;;;;;24.40;4.93;;;9.70;99.90;;;;;;5057725;28;20036;-75
2023/05/24 03:01:20;;;;;;;21.50;4.93;;;9.80;99.90;;;;;;5027782;28;20390;-75
2023/05/24 03:03:45;;;;;;;22.45;4.90;;;9.80;99.90;;;;;;5056595;28;20040;-76
2023/05/24 03:06:12;;;;;;;23.83;5.35;;;9.80;99.90;;;;;;5060477;28;20047;-75
2023/05/24 03:08:39;;;;;;;18.02;4.18;;;9.80;99.90;;;;;;5061845;28;20191;-76
2023/05/24 03:11:05;;;;;;;19.40;4.32;;;9.80;99.90;;;;;;5041892;28;20068;-75
2023/05/24 03:13:31;;;;;;;16.75;4.65;;;9.80;99.90;;;;;;5024686;28;20037;-75
2023/05/24 03:15:56;;;;;;;21.45;4.90;;;9.80;99.90;;;;;;5040549;28;20036;-75
2023/05/24 03:18:22;;;;;;;19.45;4.63;;;9.90;99.90;;;;;;5037645;28;20079;-75
2023/05/24 03:20:48;;;;;;;20.40;4.95;;;9.90;99.90;;;;;;5024782;28;20036;-75
2023/05/24 03:23:14;;;;;;;22.67;5.20;;;9.90;99.90;;;;;;5061923;28;20048;-75
2023/05/24 03:25:40;;;;;;;21.48;5.40;;;9.80;99.90;;;;;;5026509;28;20067;-75
2023/05/24 03:28:06;;;;;;;20.13;4.25;;;9.90;99.90;;;;;;5055454;28;20136;-75
2023/05/24 03:30:32;;;;;;;22.48;4.55;;;9.90;99.90;;;;;;5057731;28;20044;-75
2023/05/24 03:32:57;;;;;;;20.17;4.70;;;9.90;99.90;;;;;;5040138;28;20174;-75
2023/05/24 03:35:23;;;;;;;22.63;4.28;;;9.90;99.90;;;;;;5057384;28;20189;-75
2023/05/24 03:37:49;;;;;;;23.23;4.55;;;10.00;99.90;;;;;;5041037;28;20036;-75
2023/05/24 03:40:15;;;;;;;22.70;4.72;;;10.00;99.90;;;;;;5061258;28;20066;-75
2023/05/24 03:42:40;;;;;;;19.98;4.40;;;10.00;99.90;;;;;;5054604;28;20044;-75
2023/05/24 03:45:07;;;;;;;19.00;4.53;;;10.00;99.90;;;;;;5053677;28;20098;-75
2023/05/24 03:47:33;;;;;;;17.05;4.50;;;11.50;99.90;;;;;;5054701;28;20477;-75
2023/05/24 03:49:58;;;;;;;18.83;4.15;;;10.10;99.90;;;;;;5060125;28;20093;-75
2023/05/24 03:52:24;;;;;;;27.60;4.78;;;10.10;99.90;;;;;;5058648;28;20040;-75
2023/05/24 03:54:50;;;;;;;22.92;4.55;;;10.10;99.90;;;;;;5059603;28;20092;-75
2023/05/24 03:57:16;;;;;;;28.58;5.20;;;10.10;99.90;;;;;;5039340;28;20041;-75
2023/05/24 03:59:42;;;;;;;21.73;4.60;;;10.20;99.90;;;;;;5058284;28;20518;-75
2023/05/24 04:02:08;;;;;;;24.08;4.88;;;10.20;99.90;;;;;;5043360;28;20139;-75
2023/05/24 04:04:33;;;;;;;17.65;4.32;;;10.20;99.90;;;;;;5024952;28;20052;-75
2023/05/24 04:06:59;;;;;;;20.17;4.88;;;10.20;99.90;;;;;;5059685;28;20041;-75
2023/05/24 04:09:25;;;;;;;24.67;4.60;;;10.20;99.90;;;;;;5055595;28;20033;-75
2023/05/24 04:11:51;;;;;;;22.17;4.72;;;10.30;99.90;;;;;;5022131;28;20032;-75
2023/05/24 04:14:17;;;;;;;19.05;4.32;;;10.30;99.90;;;;;;5055836;28;20064;-75
2023/05/24 04:16:43;;;;;;;19.25;4.20;;;10.40;99.90;;;;;;5058999;28;20056;-75
2023/05/24 04:19:10;;;;;;;20.00;4.68;;;10.40;99.90;;;;;;5040297;28;20127;-75
2023/05/24 04:21:39;;;;;;;21.08;4.78;;;10.40;99.90;;;;;;5057231;28;20040;-75
2023/05/24 04:24:05;;;;;;;19.52;5.00;;;10.50;99.90;;;;;;5057350;28;20064;-75
2023/05/24 04:26:32;;;;;;;20.45;4.70;;;10.50;99.90;;;;;;5058606;28;20111;-75
2023/05/24 04:28:59;;;;;;;21.60;4.57;;;10.50;99.90;;;;;;5060106;28;20406;-75
2023/05/24 04:31:28;;;;;;;21.02;5.45;;;10.60;99.90;;;;;;5028248;28;20277;-75
2023/05/24 04:33:54;;;;;;;25.65;5.38;;;10.60;99.90;;;;;;5031447;28;20051;-75
2023/05/24 04:36:21;;;;;;;21.58;5.25;;;10.60;99.90;;;;;;5059481;28;20113;-74
2023/05/24 04:38:47;;;;;;;20.92;4.85;;;10.60;99.90;;;;;;5045080;28;20041;-75
2023/05/24 04:41:13;;;;;;;18.92;4.63;;;10.60;99.90;;;;;;5041211;28;20044;-75
2023/05/24 04:43:39;;;;;;;19.05;4.75;;;10.60;99.90;;;;;;5061490;28;20120;-75
2023/05/24 04:46:05;;;;;;;22.92;4.88;;;10.60;99.90;;;;;;5027920;28;20043;-75
2023/05/24 04:48:30;;;;;;;20.88;4.32;;;10.60;99.90;;;;;;5044842;28;20036;-76
2023/05/24 04:50:57;;;;;;;19.98;4.40;;;10.60;99.90;;;;;;5041308;28;20051;-75
2023/05/24 04:53:23;;;;;;;21.55;5.30;;;10.60;99.90;;;;;;5059758;28;20048;-76
2023/05/24 04:55:49;;;;;;;24.02;4.90;;;10.60;99.90;;;;;;5061026;28;20202;-75
2023/05/24 04:58:16;;;;;;;19.80;4.63;;;10.60;99.90;;;;;;5028342;28;20041;-76
2023/05/24 05:00:42;;;;;;;22.08;4.97;;;10.60;99.90;;;;;;5059304;28;20041;-75
2023/05/24 05:03:08;;;;;;;20.77;5.40;;;10.60;99.90;;;;;;5064342;28;20112;-75
2023/05/24 05:05:34;;;;;;;20.80;5.30;;;10.70;99.90;;;;;;5061419;28;20035;-75
2023/05/24 05:08:01;;;;;;;20.77;4.80;;;10.80;99.90;;;;;;5064910;28;20040;-75
2023/05/24 05:10:27;;;;;;;22.55;5.18;;;10.80;99.90;;;;;;5045116;28;20033;-75
2023/05/24 05:12:53;;;;;;;20.73;4.57;;;10.90;99.90;;;;;;5046050;28;20043;-76
2023/05/24 05:15:22;;;;;;;21.25;4.82;;;11.00;99.90;;;;;;5063450;28;20049;-75
2023/05/24 05:17:48;;;;;;;22.92;5.13;;;11.10;99.90;;;;;;5066241;28;20573;-75
2023/05/24 05:20:14;;;;;;;19.38;5.30;;;11.20;99.90;;;;;;5061746;28;20161;-75
2023/05/24 05:22:48;;;;;;;18.95;4.38;;;11.30;99.90;;;;;;5057737;28;20430;-75
2023/05/24 05:25:14;;;;;;;20.10;4.43;;;11.30;99.90;;;;;;5058191;28;20052;-75
2023/05/24 05:27:40;;;;;;;17.45;4.35;;;11.40;99.90;;;;;;5055766;28;20037;-75
2023/05/24 05:30:07;;;;;;;19.70;4.00;;;11.50;99.90;;;;;;5056153;28;20521;-75
2023/05/24 05:32:32;;;;;;;24.73;5.22;;;11.50;99.90;;;;;;5038106;28;20127;-75
2023/05/24 05:34:58;;;;;;;19.58;4.72;;;11.60;99.90;;;;;;5059106;28;20123;-75
2023/05/24 05:37:24;;;;;;;18.15;4.05;;;11.60;99.90;;;;;;5061329;28;20041;-75
2023/05/24 05:39:50;;;;;;;18.92;4.55;;;11.70;99.90;;;;;;5063923;28;20060;-75
2023/05/24 05:42:15;;;;;;;23.48;4.82;;;11.70;99.90;;;;;;5044026;28;20033;-75
2023/05/24 05:44:42;;;;;;;14.27;3.83;;;11.70;99.90;;;;;;5043044;28;20490;-74
2023/05/24 05:47:08;;;;;;;21.75;5.05;;;11.80;99.90;;;;;;5061645;28;20051;-75
2023/05/24 05:49:37;;;;;;;21.60;5.10;;;11.80;99.90;;;;;;5062452;28;20123;-75
2023/05/24 05:52:06;;;;;;;21.02;4.65;;;11.90;99.90;;;;;;5061174;28;20051;-75
2023/05/24 05:54:32;;;;;;;16.73;3.92;;;11.80;99.90;;;;;;5060591;28;20048;-75
2023/05/24 05:56:58;;;;;;;22.92;5.10;;;11.90;99.90;;;;;;5062562;28;20406;-76
2023/05/24 05:59:24;;;;;;;17.90;4.43;;;11.90;99.90;;;;;;5044038;28;20040;-74
2023/05/24 06:01:50;;;;;;;21.83;4.38;;;12.00;99.90;;;;;;5056280;28;20033;-75
2023/05/24 06:04:15;;;;;;;17.35;4.57;;;12.00;99.90;;;;;;5061948;28;20035;-75
2023/05/24 06:06:43;;;;;;;17.05;4.35;;;12.00;99.90;;;;;;5061157;28;20487;-74
2023/05/24 06:09:08;;;;;;;17.30;4.00;;;12.00;99.90;;;;;;5047620;28;20043;-74
2023/05/24 06:11:34;;;;;;;22.83;5.32;;;12.10;99.90;;;;;;5034941;28;20036;-74
2023/05/24 06:14:00;;;;;;;16.63;3.80;;;12.20;99.90;;;;;;5038993;28;20044;-74
2023/05/24 06:16:26;;;;;;;15.13;4.57;;;12.20;99.90;;;;;;5042106;28;20033;-74
2023/05/24 06:18:52;;;;;;;18.15;4.45;;;12.30;99.90;;;;;;5036299;28;20044;-74
2023/05/24 06:21:17;;;;;;;15.27;3.83;;;12.30;99.90;;;;;;5038816;28;20067;-74
2023/05/24 06:23:43;;;;;;;14.05;3.50;;;12.20;99.90;;;;;;5041578;28;20032;-75
2023/05/24 06:26:09;;;;;;;18.70;4.13;;;12.10;99.90;;;;;;5027585;28;20068;-75
2023/05/24 06:28:38;;;;;;;19.63;4.40;;;12.20;99.90;;;;;;5051807;28;20140;-75
2023/05/24 06:31:04;;;;;;;15.18;3.92;;;12.20;99.90;;;;;;5053442;28;20519;-75
2023/05/24 06:33:31;;;;;;;17.60;4.35;;;12.20;99.90;;;;;;5058649;28;20460;-75
2023/05/24 06:35:57;;;;;;;14.85;3.85;;;12.20;99.90;;;;;;5041315;28;20134;-75
2023/05/24 06:38:23;;;;;;;14.60;3.83;;;12.20;99.90;;;;;;5059999;28;20033;-74
2023/05/24 06:40:49;;;;;;;14.73;3.50;;;12.30;99.90;;;;;;5056979;28;20044;-75
2023/05/24 06:43:16;;;;;;;17.10;4.18;;;12.30;99.90;;;;;;5030182;28;20095;-74
2023/05/24 06:45:42;;;;;;;17.48;3.55;;;12.30;99.90;;;;;;5037236;28;20068;-75
2023/05/24 06:48:07;;;;;;;13.75;4.55;;;12.40;99.90;;;;;;5038913;28;20167;-74
2023/05/24 06:50:35;;;;;;;12.40;3.38;;;12.30;99.90;;;;;;5056883;28;20044;-75
2023/05/24 06:53:01;;;;;;;14.00;3.35;;;12.40;99.90;;;;;;5024919;28;20036;-75
2023/05/24 06:55:28;;;;;;;16.83;3.75;;;12.60;99.90;;;;;;5044549;28;20083;-75
2023/05/24 06:57:53;;;;;;;16.27;3.40;;;12.90;99.90;;;;;;5037268;28;20044;-75
2023/05/24 07:00:21;;;;;;;14.32;3.60;;;13.10;99.90;;;;;;5055400;28;20045;-75
2023/05/24 07:02:47;;;;;;;14.95;3.63;;;13.30;99.90;;;;;;5057745;28;20048;-75
2023/05/24 07:05:12;;;;;;;16.58;3.95;;;13.50;99.90;;;;;;5040285;28;20040;-75
2023/05/24 07:07:39;;;;;;;12.48;3.20;;;13.60;99.90;;;;;;5033385;28;20051;-76
2023/05/24 07:10:07;;;;;;;15.93;4.13;;;13.70;99.90;;;;;;5057067;28;20465;-76
2023/05/24 07:12:32;;;;;;;14.38;3.42;;;13.70;99.90;;;;;;5045302;28;20254;-75
2023/05/24 07:14:58;;;;;;;14.55;3.38;;;13.80;99.90;;;;;;5056309;28;20333;-74
2023/05/24 07:17:24;;;;;;;17.05;3.55;;;13.80;99.90;;;;;;5039173;28;20100;-75
2023/05/24 07:19:51;;;;;;;13.77;3.00;;;13.70;99.90;;;;;;5058962;28;20086;-75
2023/05/24 07:22:17;;;;;;;16.13;3.60;;;13.80;99.90;;;;;;5027301;28;20028;-76
2023/05/24 07:24:42;;;;;;;19.00;3.75;;;14.00;99.90;;;;;;5028827;28;20040;-75
2023/05/24 07:27:08;;;;;;;16.05;3.28;;;14.10;99.90;;;;;;5040450;28;20040;-75
2023/05/24 07:29:34;;;;;;;16.25;3.60;;;14.20;99.90;;;;;;5041532;28;20048;-75
2023/05/24 07:32:00;;;;;;;13.13;3.75;;;13.90;99.90;;;;;;5038138;28;20036;-75
2023/05/24 07:34:28;;;;;;;14.43;3.55;;;13.80;99.90;;;;;;5044339;28;20090;-75
2023/05/24 07:36:57;;;;;;;18.45;3.75;;;13.60;99.90;;;;;;5057927;28;20554;-75
2023/05/24 07:39:24;;;;;;;12.90;3.70;;;13.50;99.90;;;;;;5058651;28;20121;-75
2023/05/24 07:41:50;;;;;;;20.25;4.15;;;13.30;99.90;;;;;;5042222;28;20195;-75
2023/05/24 07:44:15;;;;;;;14.98;4.00;;;13.20;99.90;;;;;;5054657;28;20191;-75
2023/05/24 07:46:41;;;;;;;13.10;3.13;;;13.30;99.90;;;;;;5059924;28;20044;-76
2023/05/24 07:49:07;;;;;;;14.13;3.55;;;13.50;99.90;;;;;;5056934;28;20040;-75
2023/05/24 07:51:32;;;;;;;16.40;4.18;;;13.70;99.90;;;;;;5022452;28;20037;-75
2023/05/24 07:53:59;;;;;;;15.52;3.88;;;13.70;99.90;;;;;;5039792;28;20067;-75
2023/05/24 07:56:25;;;;;;;16.20;3.65;;;13.60;99.90;;;;;;5042351;28;20494;-75
2023/05/24 07:58:51;;;;;;;15.70;3.45;;;13.60;99.90;;;;;;5024631;28;20120;-75
2023/05/24 08:01:19;;;;;;;15.23;3.97;;;13.60;99.90;;;;;;5055826;28;20233;-75
2023/05/24 08:03:46;;;;;;;14.75;3.72;;;13.40;99.90;;;;;;5028307;28;20072;-75
2023/05/24 08:06:12;;;;;;;12.52;3.22;;;13.40;99.90;;;;;;5061881;28;20470;-75
2023/05/24 08:08:39;;;;;;;13.15;3.08;;;13.30;99.90;;;;;;5045529;28;20113;-75
2023/05/24 08:11:06;;;;;;;15.02;3.67;;;13.20;99.90;;;;;;5060291;28;20048;-75
2023/05/24 08:13:33;;;;;;;13.13;3.58;;;13.20;99.90;;;;;;5048092;28;20074;-75
2023/05/24 08:15:58;;;;;;;13.68;3.33;;;13.20;99.90;;;;;;5061158;28;20040;-75
2023/05/24 08:18:24;;;;;;;11.57;2.97;;;13.40;99.90;;;;;;5057409;28;20169;-76
2023/05/24 08:20:50;;;;;;;15.55;3.60;;;13.70;99.90;;;;;;5062644;28;20036;-76
2023/05/24 08:23:16;;;;;;;14.00;3.38;;;14.00;99.90;;;;;;5028894;28;20115;-74
2023/05/24 08:25:42;;;;;;;13.43;3.30;;;14.10;99.90;;;;;;5042998;28;20124;-75
2023/05/24 08:28:09;;;;;;;16.00;3.58;;;14.00;99.90;;;;;;5061698;28;20040;-75
2023/05/24 08:30:35;;;;;;;12.82;2.90;;;14.00;99.90;;;;;;5047793;28;20119;-76
2023/05/24 08:33:01;;;;;;;15.68;3.85;;;14.00;99.90;;;;;;5062726;28;20033;-75
2023/05/24 08:35:27;;;;;;;12.65;3.40;;;14.10;99.90;;;;;;5045664;28;20025;-75
2023/05/24 08:37:53;;;;;;;12.38;3.45;;;14.20;99.90;;;;;;5065685;28;20498;-75
2023/05/24 08:40:19;;;;;;;11.68;3.08;;;14.30;99.90;;;;;;5061919;28;20051;-75
2023/05/24 08:42:46;;;;;;;13.57;2.88;;;14.60;99.90;;;;;;5032642;28;20048;-75
2023/05/24 08:45:13;;;;;;;12.15;2.88;;;14.80;99.90;;;;;;5063530;28;20094;-75
2023/05/24 08:47:40;;;;;;;14.80;3.47;;;14.80;99.90;;;;;;5060616;28;20143;-75
2023/05/24 08:50:07;;;;;;;13.07;3.28;;;14.70;99.90;;;;;;5055587;28;20120;-75
2023/05/24 08:52:33;;;;;;;14.38;3.33;;;14.70;99.90;;;;;;5045183;28;20048;-75
2023/05/24 08:54:59;;;;;;;13.35;3.13;;;14.80;99.90;;;;;;5060122;28;20197;-75
2023/05/24 08:57:26;;;;;;;12.40;3.08;;;14.80;99.90;;;;;;5062150;28;20040;-76
2023/05/24 08:59:56;;;;;;;13.00;2.92;;;;;;;;;;5059331;28;20037;-75
2023/05/24 09:02:22;;;;;;;15.57;3.80;;;14.60;99.90;;;;;;5058555;28;20029;-75
2023/05/24 09:04:50;;;;;;;15.90;3.80;;;14.50;99.90;;;;;;5059432;28;20112;-75
2023/05/24 09:07:18;;;;;;;12.65;3.38;;;14.70;99.90;;;;;;5053451;28;20119;-75
2023/05/24 09:09:48;;;;;;;15.20;3.63;;;14.60;99.90;;;;;;5046350;28;20509;-75
2023/05/24 09:12:17;;;;;;;14.93;3.20;;;14.60;99.90;;;;;;5060721;28;20047;-75
2023/05/24 09:14:45;;;;;;;12.50;3.25;;;14.50;99.90;;;;;;5044436;28;20079;-75
2023/05/24 09:17:14;;;;;;;15.57;3.30;;;14.50;99.90;;;;;;5058582;28;20081;-75
2023/05/24 09:19:45;;;;;;;16.73;3.70;;;14.40;99.90;;;;;;5035036;28;21503;-75
2023/05/24 09:22:18;;;;;;;13.75;3.58;;;14.50;99.90;;;;;;5041763;28;20094;-75
2023/05/24 09:24:47;;;;;;;14.73;3.50;;;14.50;99.90;;;;;;5062641;28;20044;-75
2023/05/24 09:27:17;;;;;;;14.77;3.58;;;14.50;99.90;;;;;;5040009;28;20048;-75
2023/05/24 09:29:47;;;;;;;15.10;3.78;;;14.60;99.90;;;;;;5041798;28;20116;-75
2023/05/24 09:32:14;;;;;;;15.38;3.90;;;14.60;99.90;;;;;;5061560;28;20044;-75
2023/05/24 09:34:41;;;;;;;12.40;3.13;;;14.70;99.90;;;;;;5059739;28;20045;-75
2023/05/24 09:37:15;;;;;;;12.65;3.58;;;14.80;99.90;;;;;;5046842;28;20119;-74
2023/05/24 09:39:43;;;;;;;13.68;3.67;;;15.10;99.90;;;;;;5060475;28;20503;-75
2023/05/24 09:42:15;;;;;;;14.82;3.85;;;15.20;99.90;;;;;;5016933;28;20279;-75
2023/05/24 09:44:42;;;;;;;9.50;3.15;;;15.20;99.90;;;;;;5039149;28;20044;-75
2023/05/24 09:47:08;;;;;;;13.38;3.53;;;15.20;99.90;;;;;;5038469;28;20098;-74
2023/05/24 09:49:36;;;;;;;15.30;3.20;;;14.90;99.90;;;;;;5059111;28;20252;-74
2023/05/24 09:52:02;;;;;;;11.27;3.05;;;14.80;99.90;;;;;;5038470;28;20116;-74
2023/05/24 09:54:28;;;;;;;15.60;3.47;;;14.80;99.90;;;;;;5059736;28;20115;-75
2023/05/24 09:56:53;;;;;;;15.30;3.58;;;14.80;99.90;;;;;;5028709;28;20052;-74
2023/05/24 09:59:19;;;;;;;11.98;3.67;;;14.80;99.90;;;;;;5045240;28;20127;-75
2023/05/24 10:01:45;;;;;;;10.77;3.00;;;14.80;99.90;;;;;;5057302;28;20063;-75
2023/05/24 10:04:12;;;;;;;13.55;3.50;;;14.80;99.90;;;;;;5044917;28;20047;-75
2023/05/24 10:06:41;;;;;;;12.93;3.30;;;14.80;99.90;;;;;;5043721;28;20040;-74
2023/05/24 10:09:08;;;;;;;12.18;3.30;;;15.10;99.90;;;;;;5045290;28;20036;-75
2023/05/24 10:11:38;;;;;;;11.25;3.45;;;15.40;99.90;;;;;;5030619;28;20046;-75
2023/05/24 10:14:08;;;;;;;13.27;3.20;;;15.50;99.90;;;;;;5047659;28;20052;-75
2023/05/24 10:16:36;;;;;;;13.23;3.58;;;15.60;99.90;;;;;;5059950;28;20041;-76
2023/05/24 10:19:03;;;;;;;10.55;3.13;;;15.70;99.90;;;;;;5051611;28;20076;-75
2023/05/24 10:21:31;;;;;;;13.48;3.25;;;15.60;99.90;;;;;;5041838;28;20502;-75
2023/05/24 10:24:01;;;;;;;13.38;3.50;;;15.60;99.90;;;;;;5058613;28;20392;-75
2023/05/24 10:26:31;;;;;;;13.25;3.47;;;15.80;99.90;;;;;;5060738;28;20251;-75
2023/05/24 10:29:03;;;;;;;11.75;2.97;;;15.90;99.90;;;;;;5041786;28;20036;-75
2023/05/24 10:31:36;;;;;;;14.75;3.40;;;15.70;99.90;;;;;;5057800;28;20516;-75
2023/05/24 10:34:03;;;;;;;;;;;15.50;99.90;;;;;;5041915;28;20032;-75
2023/05/24 10:36:30;;;;;;;13.68;3.45;;;15.30;99.90;;;;;;5060309;28;19922;-76
2023/05/24 10:38:56;;;;;;;10.65;3.03;;;15.10;99.90;;;;;;5063340;28;20032;-75
2023/05/24 10:41:25;;;;;;;13.40;3.50;;;15.00;99.90;;;;;;5062571;28;20093;-75
2023/05/24 10:43:52;;;;;;;13.18;3.13;;;15.00;99.90;;;;;;5056737;28;20043;-75
2023/05/24 10:46:21;;;;;;;15.25;3.38;;;15.00;99.90;;;;;;5062089;28;20036;-75
2023/05/24 10:49:00;;;;;;;12.45;3.13;;;14.80;99.90;;;;;;5042520;28;20132;-75
2023/05/24 10:51:37;;;;;;;13.57;3.40;;;14.70;99.90;;;;;;5043889;28;20067;-76
2023/05/24 10:54:15;;;;;;;12.50;3.30;;;14.60;99.90;;;;;;5051772;28;20032;-75
2023/05/24 10:56:43;;;;;;;14.15;3.33;;;14.60;99.90;;;;;;5053334;28;20063;-76
2023/05/24 10:59:44;;;;;;;15.15;3.47;;;14.60;99.90;;;;;;5060137;28;20036;-75
2023/05/24 11:02:13;;;;;;;13.27;3.58;;;14.60;99.90;;;;;;5060136;28;20108;-75
2023/05/24 11:04:42;;;;;;;13.23;3.00;;;14.70;99.90;;;;;;5026955;28;20041;-75
2023/05/24 11:07:09;;;;;;;14.10;3.25;;;14.80;99.90;;;;;;5055946;28;20029;-75
2023/05/24 11:09:44;;;;;;;13.07;3.25;;;14.80;99.90;;;;;;5058410;28;20072;-75
2023/05/24 11:12:15;;;;;;;18.42;3.83;;;14.80;99.90;;;;;;5058984;28;20116;-75
2023/05/24 11:14:47;;;;;;;14.07;3.42;;;14.70;99.90;;;;;;5044113;28;20041;-75
2023/05/24 11:17:13;;;;;;;14.05;3.45;;;14.80;99.90;;;;;;5058942;28;20037;-75
2023/05/24 11:19:47;;;;;;;14.40;3.20;;;14.90;99.90;;;;;;5040917;28;20566;-75
2023/05/24 11:22:14;;;;;;;15.43;3.47;;;14.80;99.90;;;;;;5043418;28;20541;-75
2023/05/24 11:24:40;;;;;;;17.58;3.50;;;14.70;99.90;;;;;;5041509;28;20044;-75
2023/05/24 11:27:07;;;;;;;17.48;4.45;;;14.70;99.90;;;;;;5073841;28;20500;-75
2023/05/24 11:29:43;;;;;;;15.00;3.53;;;14.70;99.90;;;;;;5056035;28;20557;-74
2023/05/24 11:32:09;;;;;;;18.27;3.80;;;14.70;99.90;;;;;;5055705;28;20036;-75
2023/05/24 11:34:35;;;;;;;17.20;3.78;;;14.60;99.90;;;;;;5043631;28;20033;-75
2023/05/24 11:37:03;;;;;;;13.48;3.50;;;14.60;99.90;;;;;;5039585;28;20093;-75
2023/05/24 11:39:35;;;;;;;15.43;4.18;;;14.60;99.90;;;;;;5054296;28;20063;-75
2023/05/24 11:42:05;;;;;;;15.07;3.83;;;14.50;99.90;;;;;;5058105;28;20521;-75
2023/05/24 11:44:31;;;;;;;13.13;3.42;;;14.50;99.90;;;;;;5057097;28;20555;-75
2023/05/24 11:47:01;;;;;;;12.18;3.58;;;14.50;99.90;;;;;;5026648;28;20033;-75
2023/05/24 11:49:27;;;;;;;16.92;3.55;;;14.60;99.90;;;;;;5042703;28;20040;-75
2023/05/24 11:51:55;;;;;;;15.30;3.70;;;14.70;99.90;;;;;;5055233;28;20063;-75
2023/05/24 11:54:22;;;;;;;12.48;3.47;;;14.80;99.90;;;;;;5030750;28;20508;-75
2023/05/24 11:56:48;;;;;;;13.13;3.33;;;14.80;99.90;;;;;;5060164;28;20048;-75
2023/05/24 11:59:24;;;;;;;14.77;3.22;;;14.90;99.90;;;;;;5027703;28;20033;-75
2023/05/24 12:01:58;;;;;;;13.35;2.95;;;15.00;99.90;;;;;;5042503;28;20032;-75
2023/05/24 12:04:24;;;;;;;14.13;3.67;;;15.00;99.90;;;;;;5060994;28;20470;-75
2023/05/24 12:06:50;;;;;;;13.43;3.75;;;14.90;99.90;;;;;;5058251;28;20092;-75
2023/05/24 12:09:17;;;;;;;12.30;3.28;;;14.90;99.90;;;;;;5059115;28;20044;-75
2023/05/24 12:11:46;;;;;;;13.52;3.47;;;15.00;99.90;;;;;;5027215;28;20098;-75
2023/05/24 12:14:18;;;;;;;17.38;3.53;;;15.10;99.90;;;;;;5056430;28;20071;-75
2023/05/24 12:16:45;;;;;;;14.05;3.28;;;15.20;99.90;;;;;;5041576;28;20258;-75
2023/05/24 12:19:18;;;;;;;11.10;3.28;;;15.20;99.90;;;;;;5059538;28;20633;-75
2023/05/24 12:21:45;;;;;;;13.30;3.33;;;15.30;99.90;;;;;;5056808;28;21479;-75
2023/05/24 12:24:18;;;;;;;16.23;3.45;;;15.40;99.90;;;;;;5039818;28;20044;-75
2023/05/24 12:26:44;;;;;;;;;;;15.40;99.90;;;;;;5044822;28;20041;-75
2023/05/24 12:29:13;;;;;;;13.13;3.72;;;15.30;99.90;;;;;;5041086;28;19916;-75
2023/05/24 12:31:48;;;;;;;13.55;3.10;;;15.30;99.90;;;;;;5060262;28;20082;-75
2023/05/24 12:34:18;;;;;;;14.90;3.95;;;15.40;99.90;;;;;;5056709;28;20654;-75
2023/05/24 12:36:45;;;;;;;15.57;3.67;;;15.40;99.90;;;;;;5045824;28;20041;-75
2023/05/24 12:39:31;;;;;;;15.48;3.70;;;15.50;99.90;;;;;;5058717;28;20037;-74
2023/05/24 12:41:57;;;;;;;11.93;3.03;;;15.30;99.90;;;;;;5059060;28;20060;-75
2023/05/24 12:44:27;;;;;;;13.75;3.72;;;15.30;99.90;;;;;;5058104;28;20041;-76